This is the latest recevied weather packets stored in our database for station/object ED3YAB-7. If no packets are shown the sender has not sent any weather packets the latest 10 day(s).
| Time | Temp. | Humidity | Pressure | Rain* | Wind** | Luminosity | Snow |
|---|---|---|---|---|---|---|---|
| 1777398201 | 29.44° C | 23% | 1016 hPa | - | - | - | - |
| 1777393928 | 41.11° C | 12% | 1016.1 hPa | - | - | - | - |
| 1777390328 | 43.33° C | 10% | 1016.2 hPa | - | - | - | - |
| 1777386729 | 42.78° C | 9% | 1016.7 hPa | - | - | - | - |
| 1777384336 | 42.22° C | 10% | 1016.9 hPa | - | - | - | - |
| 1777384328 | 42.22° C | 10% | 1016.9 hPa | - | - | - | - |
| 1777383128 | 43.33° C | 10% | 1017.2 hPa | - | - | - | - |
| 1777381936 | 42.78° C | 10% | 1017.2 hPa | - | - | - | - |
| 1777378336 | 27.22° C | 23% | 1017.9 hPa | - | - | - | - |
| 1777378328 | 27.22° C | 23% | 1017.9 hPa | - | - | - | - |
| 1777374735 | 23.89° C | 31% | 1018.5 hPa | - | - | - | - |
| 1777372327 | 23.33° C | 35% | 1018.9 hPa | - | - | - | - |
| 1777371127 | 22.22° C | 37% | 1019 hPa | - | - | - | - |
| 1777369927 | 21.67° C | 39% | 1019.1 hPa | - | - | - | - |
| 1777368734 | 21.11° C | 43% | 1019.2 hPa | - | - | - | - |
| 1777368726 | 21.11° C | 43% | 1019.2 hPa | - | - | - | - |
| 1777365135 | 20° C | 48% | 1019.3 hPa | - | - | - | - |
| 1777365128 | 20° C | 48% | 1019.3 hPa | - | - | - | - |
| 1777363928 | 19.44° C | 50% | 1019.4 hPa | - | - | - | - |
| 1777362727 | 18.33° C | 52% | 1019.3 hPa | - | - | - | - |
| 1777361527 | 17.22° C | 54% | 1019.2 hPa | - | - | - | - |
| 1777360327 | 16.67° C | 55% | 1019.3 hPa | - | - | - | - |
| 1777357927 | 15° C | 60% | 1019.4 hPa | - | - | - | - |
| 1777356727 | 14.44° C | 60% | 1019.3 hPa | - | - | - | - |
| 1777354326 | 12.22° C | 62% | 1019.2 hPa | - | - | - | - |
* Rain since midnight (hover to see other rain measurements)
** Current wind speed in m/s (hover to see current wind gust speed)